createdAt,value
2022-08-04T00:01:27.623Z,0.8
2022-08-04T00:15:27.556Z,0.8
2022-08-04T00:29:27.558Z,0.8
2022-08-04T00:41:55.522Z,0.8
2022-08-04T00:55:42.912Z,0.8
2022-08-04T01:09:43.522Z,0
2022-08-04T01:23:43.570Z,0
2022-08-04T01:37:43.531Z,0
2022-08-04T01:51:43.715Z,0.6
2022-08-04T02:06:02.790Z,0
2022-08-04T02:19:43.792Z,0
2022-08-04T02:33:43.941Z,0
2022-08-04T02:48:08.448Z,0
2022-08-04T03:01:57.230Z,0
2022-08-04T03:15:43.899Z,0
2022-08-04T03:29:43.867Z,0.8
2022-08-04T03:43:56.433Z,0.6
2022-08-04T03:58:43.921Z,0
2022-08-04T04:13:43.893Z,0
2022-08-04T04:29:43.886Z,0
2022-08-04T04:44:43.885Z,0
2022-08-04T04:59:43.886Z,0
2022-08-04T05:14:43.889Z,0
2022-08-04T05:29:43.919Z,0
2022-08-04T05:44:47.702Z,0
2022-08-04T05:51:30.654Z,0
2022-08-04T06:06:30.573Z,0
2022-08-04T06:21:30.598Z,0
2022-08-04T06:36:30.943Z,0
2022-08-04T06:51:37.175Z,0
2022-08-04T07:06:31.113Z,0.6
2022-08-04T07:26:33.903Z,0.6
2022-08-04T07:41:35.842Z,0.9
2022-08-04T07:56:34.148Z,1.2
2022-08-04T08:12:34.556Z,0.8
2022-08-04T08:26:34.204Z,1.3
2022-08-04T08:41:34.221Z,0.8
2022-08-04T08:56:34.415Z,1.0
2022-08-04T09:11:34.482Z,0.8
2022-08-04T09:26:34.545Z,1.4
2022-08-04T09:41:40.814Z,0.2
2022-08-04T09:56:34.610Z,1.2
2022-08-04T10:12:34.746Z,1.1
2022-08-04T10:28:34.675Z,0.6
2022-08-04T10:44:41.855Z,1.4
2022-08-04T11:00:34.833Z,1.5
2022-08-04T11:16:34.882Z,1.0
2022-08-04T11:31:34.877Z,1.5
2022-08-04T11:47:34.902Z,1.1
2022-08-04T12:02:34.973Z,1.1
2022-08-04T12:18:34.953Z,1.1
2022-08-04T12:33:41.550Z,1.3
2022-08-04T12:48:34.917Z,1.5
2022-08-04T13:03:34.914Z,1.4
2022-08-04T13:18:34.910Z,1.4
2022-08-04T13:33:34.922Z,0.8
2022-08-04T13:48:34.927Z,0.8
2022-08-04T14:03:53.809Z,0.8
2022-08-04T14:18:35.093Z,1.8
2022-08-04T14:34:00.770Z,0.8
2022-08-04T14:48:36.770Z,0.8
2022-08-04T15:04:35.182Z,1.7
2022-08-04T15:19:35.271Z,0.2
2022-08-04T15:34:35.328Z,1.5
2022-08-04T15:50:35.335Z,0.9
2022-08-04T16:05:35.340Z,0.9
2022-08-04T16:20:35.371Z,1.0
2022-08-04T16:36:35.342Z,0.4
2022-08-04T16:51:35.395Z,0.8
2022-08-04T17:06:35.357Z,0.2
2022-08-04T17:21:35.360Z,0
2022-08-04T17:36:35.363Z,0
2022-08-04T17:52:01.482Z,0.4
2022-08-04T18:06:35.444Z,0
2022-08-04T18:21:45.900Z,0
2022-08-04T18:36:37.506Z,0
2022-08-04T18:52:35.484Z,0.2
2022-08-04T19:08:01.653Z,0
2022-08-04T19:22:36.334Z,0
2022-08-04T19:36:35.515Z,0
2022-08-04T19:50:35.526Z,0.6
2022-08-04T20:04:35.521Z,0.8
2022-08-04T20:18:55.766Z,0.6
2022-08-04T20:32:35.536Z,0.9
2022-08-04T20:46:35.523Z,0.9
2022-08-04T21:00:35.541Z,0.8
2022-08-04T21:14:36.030Z,0.4
2022-08-04T21:28:35.564Z,0.4
2022-08-04T21:42:35.537Z,0.8
2022-08-04T21:56:35.665Z,0
2022-08-04T22:10:35.865Z,0
2022-08-04T22:24:35.826Z,0.8
2022-08-04T22:38:48.516Z,0.2
2022-08-04T22:52:35.950Z,0
2022-08-04T23:06:35.953Z,0
2022-08-04T23:20:39.802Z,0
2022-08-04T23:34:36.014Z,0.8
2022-08-04T23:48:36.058Z,0
